Time;durP1;ratioP1;P1;durP2;ratioP2;P2;SDS_P1;SDS_P2;PMS_P1;PMS_P2;Temp;Humidity;BMP_temperature;BMP_pressure;BME280_temperature;BME280_humidity;BME280_pressure;Samples;Min_cycle;Max_cycle;Signal;HPM_P1;HPM_P2
2024/01/30 00:01:26;;;;;;;15.23;7.40;;;9.80;99.90;;;9.92;69.43;101645.50;5107870;28;20058;-81
2024/01/30 00:03:57;;;;;;;14.27;7.63;;;9.80;99.90;;;9.89;69.28;101649.34;5117941;28;20047;-80
2024/01/30 00:06:27;;;;;;;14.32;8.35;;;9.80;99.90;;;9.87;69.53;101658.53;5099761;28;20047;-81
2024/01/30 00:08:55;;;;;;;13.43;7.82;;;9.70;99.90;;;9.89;69.61;101656.50;5079277;28;20058;-81
2024/01/30 00:11:26;;;;;;;14.45;8.40;;;9.80;99.90;;;9.90;69.60;101652.81;5117706;28;20039;-81
2024/01/30 00:13:58;;;;;;;18.75;8.40;;;9.80;99.90;;;9.91;69.42;101658.00;5117648;28;20107;-80
2024/01/30 00:16:28;;;;;;;15.93;8.15;;;9.80;99.90;;;9.91;69.53;101654.50;5098768;28;20056;-81
2024/01/30 00:18:59;;;;;;;14.10;7.57;;;9.80;99.90;;;9.92;69.35;101650.84;5098858;28;20051;-81
2024/01/30 00:21:29;;;;;;;16.58;7.70;;;9.80;99.90;;;9.93;69.30;101647.97;5117243;28;20056;-81
2024/01/30 00:23:57;;;;;;;14.82;7.85;;;9.80;99.90;;;9.90;69.18;101637.66;5117942;28;20105;-81
2024/01/30 00:26:27;;;;;;;12.88;7.53;;;9.80;99.90;;;9.90;69.26;101637.66;5098949;28;20081;-81
2024/01/30 00:28:58;;;;;;;11.43;7.07;;;9.80;99.90;;;9.92;69.14;101648.16;5117513;28;20044;-81
2024/01/30 00:31:30;;;;;;;;;;;9.80;99.90;;;9.90;69.21;101640.34;5118397;28;20044;-81
2024/01/30 00:34:01;;;;;;;13.60;7.65;;;9.80;99.90;;;9.88;69.30;101633.53;5117946;28;19924;-81
2024/01/30 00:36:30;;;;;;;11.82;8.13;;;9.60;99.90;;;9.90;69.20;101636.84;5117477;28;20097;-81
2024/01/30 00:39:00;;;;;;;16.60;8.35;;;9.80;99.90;;;9.88;69.25;101636.19;5117176;28;20138;-81
2024/01/30 00:41:29;;;;;;;12.60;7.55;;;9.80;99.90;;;9.90;69.31;101634.19;5117290;28;20048;-81
2024/01/30 00:44:00;;;;;;;12.45;8.02;;;9.80;99.90;;;9.88;69.22;101626.38;5117255;28;20074;-81
2024/01/30 00:46:45;;;;;;;14.13;7.97;;;9.70;99.90;;;9.90;69.00;101631.50;5099279;28;20077;-81
2024/01/30 00:49:13;;;;;;;13.15;7.72;;;9.80;99.90;;;9.89;69.11;101624.53;5099195;28;20047;-80
2024/01/30 00:51:45;;;;;;;16.88;7.90;;;9.80;99.90;;;9.87;69.19;101629.22;5098934;28;20044;-80
2024/01/30 00:54:12;;;;;;;19.17;8.60;;;9.80;99.90;;;9.85;69.00;101626.72;5099078;28;20515;-80
2024/01/30 00:56:51;;;;;;;15.55;7.60;;;9.80;99.90;;;9.85;69.14;101628.56;5117123;28;20062;-81
2024/01/30 00:59:26;;;;;;;15.98;8.18;;;9.80;99.90;;;9.86;69.19;101627.53;5099582;28;20075;-81
2024/01/30 01:01:57;;;;;;;14.50;7.88;;;9.80;99.90;;;9.82;69.21;101624.44;5115599;28;20090;-81
2024/01/30 01:04:28;;;;;;;15.25;7.70;;;9.80;99.90;;;9.80;69.26;101623.75;5099455;28;20070;-81
2024/01/30 01:07:00;;;;;;;15.52;8.02;;;9.80;99.90;;;9.82;69.19;101624.44;5099132;28;20421;-81
2024/01/30 01:09:28;;;;;;;14.70;7.45;;;9.80;99.90;;;9.81;69.15;101622.78;5098942;28;20051;-81
2024/01/30 01:12:04;;;;;;;17.35;8.38;;;9.70;99.90;;;9.79;69.19;101622.09;5119062;28;20040;-81
2024/01/30 01:14:36;;;;;;;12.07;7.78;;;9.70;99.90;;;9.84;69.13;101629.56;5121122;28;20059;-81
2024/01/30 01:17:09;;;;;;;13.95;8.18;;;9.70;99.90;;;9.84;69.00;101632.22;5120658;28;20054;-80
2024/01/30 01:19:37;;;;;;;12.10;7.90;;;9.70;99.90;;;9.84;69.06;101630.41;5103692;28;20040;-80
2024/01/30 01:22:10;;;;;;;12.27;7.87;;;9.70;99.90;;;9.85;69.18;101623.22;5102847;28;20056;-81
2024/01/30 01:24:43;;;;;;;15.70;7.85;;;9.70;99.90;;;9.87;68.94;101626.56;5120964;28;20415;-81
2024/01/30 01:27:11;;;;;;;15.15;8.35;;;9.70;99.90;;;9.81;68.92;101633.44;5120522;28;20109;-80
2024/01/30 01:29:39;;;;;;;12.02;7.85;;;9.70;99.90;;;9.80;69.05;101632.56;5120431;28;20048;-80
2024/01/30 01:32:10;;;;;;;14.60;8.20;;;9.70;99.90;;;9.81;68.89;101625.44;5102571;28;20048;-81
2024/01/30 01:34:51;;;;;;;15.10;8.32;;;9.70;99.90;;;9.80;68.92;101621.91;5121195;28;20170;-81
2024/01/30 01:37:18;;;;;;;;;;;9.70;99.90;;;9.80;68.85;101619.25;5121187;28;20039;-81
2024/01/30 01:39:50;;;;;;;16.20;8.50;;;9.70;99.90;;;9.80;68.80;101621.91;5120945;28;19923;-81
2024/01/30 01:42:17;;;;;;;14.07;8.55;;;9.60;99.90;;;9.80;69.05;101623.75;5103022;28;20105;-81
2024/01/30 01:44:47;;;;;;;15.85;7.72;;;9.60;99.90;;;9.82;68.84;101620.94;5102375;28;20150;-81
2024/01/30 01:47:17;;;;;;;19.15;8.50;;;9.70;99.90;;;9.83;68.86;101614.59;5102733;28;20039;-81
2024/01/30 01:49:56;;;;;;;16.80;7.90;;;9.70;99.90;;;9.83;68.74;101620.75;5102854;28;20126;-81
2024/01/30 01:52:31;;;;;;;12.77;8.00;;;9.70;99.90;;;9.82;68.88;101618.28;5120017;28;20145;-81
2024/01/30 01:55:09;;;;;;;12.95;7.88;;;9.70;99.90;;;9.82;68.87;101620.94;5102051;28;20036;-81
2024/01/30 01:57:39;;;;;;;14.50;8.57;;;9.70;99.90;;;9.81;68.85;101606.78;5120275;28;20047;-81
2024/01/30 02:00:12;;;;;;;14.50;8.25;;;9.60;99.90;;;9.80;68.87;101605.09;5101919;28;20510;-81
2024/01/30 02:03:15;;;;;;;13.75;7.57;;;9.70;99.90;;;9.82;68.92;101608.44;5068107;28;20519;-82
2024/01/30 02:05:48;;;;;;;12.00;7.47;;;9.70;99.90;;;9.81;68.92;101606.78;5121255;28;20494;-81
2024/01/30 02:08:19;;;;;;;14.07;8.35;;;9.60;99.90;;;9.82;68.83;101602.28;5103197;28;20043;-81
2024/01/30 02:10:49;;;;;;;13.35;7.93;;;9.70;99.90;;;9.80;69.01;101599.78;5102318;28;20047;-81
2024/01/30 02:13:18;;;;;;;14.10;7.72;;;9.60;99.90;;;9.79;69.08;101596.28;5120467;28;20057;-81
2024/01/30 02:15:51;;;;;;;12.13;7.53;;;9.60;99.90;;;9.79;68.90;101606.13;5107155;28;20495;-81
2024/01/30 02:18:24;;;;;;;13.52;7.95;;;9.60;99.90;;;9.77;69.00;101603.66;5102036;28;20043;-81
2024/01/30 02:20:57;;;;;;;14.20;7.40;;;9.60;99.90;;;9.79;69.13;101595.47;5120304;28;20134;-81
2024/01/30 02:23:31;;;;;;;17.35;7.95;;;9.60;99.90;;;9.78;69.15;101594.63;5101804;28;20050;-81
2024/01/30 02:26:02;;;;;;;16.85;8.32;;;9.60;99.90;;;9.79;68.92;101590.97;5120490;28;20032;-81
2024/01/30 02:28:37;;;;;;;12.63;7.38;;;9.60;99.90;;;9.79;68.77;101598.13;5135815;27;20043;-81
2024/01/30 02:31:07;;;;;;;12.90;7.57;;;9.60;99.90;;;9.78;68.82;101599.97;5101988;28;20433;-81
2024/01/30 02:33:36;;;;;;;13.18;7.07;;;9.60;99.90;;;9.79;68.80;101592.81;5101715;28;20089;-80
2024/01/30 02:36:05;;;;;;;13.10;7.18;;;9.60;99.90;;;9.78;68.89;101586.66;5120104;28;20472;-81
2024/01/30 02:38:37;;;;;;;12.27;7.13;;;9.60;99.90;;;9.77;68.68;101587.66;5120990;28;20099;-81
2024/01/30 02:41:05;;;;;;;15.73;7.88;;;9.60;99.90;;;9.76;68.89;101583.34;5118328;27;20488;-81
2024/01/30 02:43:32;;;;;;;15.25;7.35;;;9.60;99.90;;;9.76;68.88;101586.00;5099635;28;20127;-81
2024/01/30 02:46:00;;;;;;;13.02;7.47;;;9.60;99.90;;;9.73;68.87;101580.19;5108530;28;20498;-80
2024/01/30 02:48:30;;;;;;;14.10;7.25;;;9.50;99.90;;;9.73;68.82;101578.38;5102171;28;20047;-81
2024/01/30 02:50:58;;;;;;;12.77;6.90;;;9.50;99.90;;;9.74;68.73;101573.84;5101073;28;20055;-80
2024/01/30 02:53:25;;;;;;;12.20;7.15;;;9.50;99.90;;;9.74;68.83;101569.34;5101273;28;20209;-80
2024/01/30 02:55:54;;;;;;;16.00;7.10;;;9.50;99.90;;;9.73;68.95;101566.88;5119713;28;20118;-80
2024/01/30 02:58:24;;;;;;;13.55;7.65;;;9.50;99.90;;;9.72;69.05;101571.38;5120250;28;20119;-80
2024/01/30 03:00:52;;;;;;;14.57;7.20;;;9.50;99.90;;;9.74;69.05;101568.53;5101089;28;20039;-80
2024/01/30 03:03:24;;;;;;;12.35;6.65;;;9.50;99.90;;;9.74;69.10;101557.88;5100825;28;20048;-80
2024/01/30 03:05:52;;;;;;;13.23;6.82;;;9.60;99.90;;;9.75;68.95;101563.00;5120033;28;20114;-80
2024/01/30 03:08:19;;;;;;;14.25;7.05;;;9.50;99.90;;;9.74;69.01;101563.19;5100800;28;20583;-80
2024/01/30 03:10:50;;;;;;;12.05;6.57;;;9.50;99.90;;;9.73;69.05;101557.06;5099129;28;20043;-81
2024/01/30 03:13:19;;;;;;;10.25;6.13;;;9.50;99.90;;;9.74;69.13;101555.22;5115444;27;20047;-80
2024/01/30 03:15:46;;;;;;;12.80;7.03;;;9.50;99.90;;;9.73;69.13;101558.88;5098951;28;20044;-80
2024/01/30 03:18:16;;;;;;;13.82;6.65;;;9.50;99.90;;;9.73;69.11;101551.72;5098327;28;20036;-80
2024/01/30 03:20:46;;;;;;;12.40;6.90;;;9.50;99.90;;;9.73;69.25;101554.38;5096044;28;20058;-80
2024/01/30 03:23:22;;;;;;;12.88;7.47;;;9.50;99.90;;;9.72;69.18;101552.72;5118806;28;20043;-81
2024/01/30 03:25:52;;;;;;;11.18;7.20;;;9.60;99.90;;;9.73;69.23;101556.22;5118998;28;20036;-80
2024/01/30 03:28:21;;;;;;;14.77;7.10;;;9.50;99.90;;;9.72;69.36;101554.56;5083149;28;20114;-80
2024/01/30 03:30:50;;;;;;;15.52;6.53;;;9.60;99.90;;;9.71;69.38;101548.41;5118261;28;20068;-81
2024/01/30 03:33:18;;;;;;;12.57;6.63;;;9.60;99.90;;;9.72;69.33;101547.41;5065295;28;20063;-81
2024/01/30 03:35:48;;;;;;;12.52;6.40;;;9.60;99.90;;;9.72;69.48;101539.41;5099821;28;20418;-80
2024/01/30 03:38:16;;;;;;;12.98;6.85;;;9.60;99.90;;;9.74;69.44;101542.72;5083046;28;20047;-80
2024/01/30 03:40:45;;;;;;;11.75;6.57;;;9.60;99.90;;;9.74;69.42;101547.22;5099853;28;20040;-81
2024/01/30 03:43:15;;;;;;;11.85;6.38;;;9.60;99.90;;;9.75;69.44;101551.53;5118123;28;20408;-80
2024/01/30 03:45:44;;;;;;;11.50;6.25;;;9.60;99.90;;;9.76;69.41;101550.53;5118724;28;20039;-81
2024/01/30 03:48:12;;;;;;;14.30;6.72;;;9.60;99.90;;;9.76;69.18;101547.84;5117744;28;20067;-80
2024/01/30 03:50:42;;;;;;;10.05;5.88;;;9.60;99.90;;;9.75;69.06;101546.22;5117838;28;20499;-81
2024/01/30 03:53:10;;;;;;;13.70;6.47;;;9.60;99.90;;;9.73;69.29;101546.41;5118134;28;20044;-81
2024/01/30 03:55:40;;;;;;;11.10;6.78;;;9.50;99.90;;;9.72;69.27;101541.25;5118157;28;20278;-81
2024/01/30 03:58:08;;;;;;;11.77;6.32;;;9.50;99.90;;;9.71;69.45;101543.09;5116160;28;20494;-81
2024/01/30 04:00:39;;;;;;;9.88;6.10;;;9.50;99.90;;;9.71;69.28;101544.91;5099839;28;20040;-81
2024/01/30 04:03:08;;;;;;;12.93;6.47;;;9.50;99.90;;;9.70;69.38;101538.75;5116913;28;20066;-81
2024/01/30 04:05:36;;;;;;;12.68;6.70;;;9.50;99.90;;;9.69;69.27;101531.78;5082165;28;20066;-80
2024/01/30 04:08:05;;;;;;;13.48;6.35;;;9.50;99.90;;;9.69;69.28;101538.94;5082600;28;20048;-80
2024/01/30 04:10:38;;;;;;;11.93;6.40;;;9.50;99.90;;;9.69;69.26;101530.94;5117844;28;20043;-80
2024/01/30 04:13:09;;;;;;;14.80;6.97;;;9.50;99.90;;;9.66;69.18;101520.63;5117737;28;20060;-81
2024/01/30 04:15:39;;;;;;;12.93;6.80;;;9.40;99.90;;;9.63;69.09;101527.16;5082009;28;20523;-81
2024/01/30 04:18:19;;;;;;;11.25;6.72;;;9.40;99.90;;;9.61;69.25;101521.16;5117270;28;20288;-80
2024/01/30 04:20:48;;;;;;;12.60;6.40;;;9.40;99.90;;;9.61;69.34;101521.16;5082385;28;20044;-80
2024/01/30 04:23:19;;;;;;;13.73;6.47;;;9.40;99.90;;;9.60;69.36;101516.88;5099299;28;20073;-81
2024/01/30 04:25:46;;;;;;;12.03;6.57;;;9.40;99.90;;;9.60;69.31;101511.53;5117893;28;20039;-80
2024/01/30 04:28:14;;;;;;;12.05;6.97;;;9.40;99.90;;;9.60;69.43;101508.03;5082665;28;20804;-80
2024/01/30 04:30:45;;;;;;;12.48;6.88;;;9.40;99.90;;;9.59;69.44;101509.88;5117059;28;20497;-80
2024/01/30 04:33:18;;;;;;;17.10;7.18;;;9.40;99.90;;;9.59;69.60;101517.03;5098979;28;20044;-81
2024/01/30 04:35:51;;;;;;;15.63;6.78;;;9.40;99.90;;;9.59;69.71;101511.72;5117340;28;20043;-80
2024/01/30 04:38:19;;;;;;;12.95;7.13;;;9.40;99.90;;;9.60;69.89;101519.53;5099686;28;20052;-80
2024/01/30 04:40:50;;;;;;;19.50;8.18;;;9.40;99.90;;;9.60;69.82;101502.72;5082840;28;20035;-80
2024/01/30 04:43:18;;;;;;;13.57;7.85;;;9.40;99.90;;;9.60;69.91;101506.22;5117556;28;20047;-80
2024/01/30 04:45:46;;;;;;;14.32;7.97;;;9.50;99.90;;;9.59;69.73;101506.41;5101958;28;20455;-80
2024/01/30 04:48:15;;;;;;;13.32;8.18;;;9.40;99.90;;;9.55;69.92;101506.75;5104465;28;20132;-80
2024/01/30 04:50:45;;;;;;;12.10;7.55;;;9.40;99.90;;;9.56;69.76;101504.91;5122383;28;20513;-80
2024/01/30 04:53:18;;;;;;;15.07;7.82;;;9.40;99.90;;;9.57;69.92;101511.09;5121907;28;20067;-84
2024/01/30 04:55:46;;;;;;;15.45;8.15;;;9.40;99.90;;;9.54;69.91;101504.28;5119598;28;20089;-84
2024/01/30 04:58:20;;;;;;;17.75;8.15;;;9.40;99.90;;;9.55;69.93;101506.75;5122580;28;20043;-80
2024/01/30 05:00:52;;;;;;;19.20;8.88;;;9.40;99.90;;;9.54;70.06;101506.94;5120426;28;20498;-84
2024/01/30 05:03:36;;;;;;;17.88;8.80;;;9.40;99.90;;;9.54;69.93;101510.41;5101143;28;20044;-84
2024/01/30 05:06:06;;;;;;;19.63;9.32;;;9.40;99.90;;;9.53;70.03;101513.28;5099785;28;20048;-84
2024/01/30 05:08:36;;;;;;;15.45;9.35;;;9.40;99.90;;;9.53;70.26;101521.25;5065731;28;20044;-84
2024/01/30 05:11:11;;;;;;;20.25;10.15;;;9.40;99.90;;;9.51;70.31;101513.44;5098607;28;20048;-84
2024/01/30 05:13:42;;;;;;;19.63;9.90;;;9.40;99.90;;;9.52;70.20;101512.44;5102238;28;20140;-84
2024/01/30 05:16:12;;;;;;;;;;;9.40;99.90;;;9.54;70.09;101512.25;5120232;28;20143;-84
2024/01/30 05:18:41;;;;;;;21.50;10.50;;;9.40;99.90;;;9.53;70.19;101513.28;5120469;28;20371;-80
2024/01/30 05:23:59;;;;;;;18.08;9.30;;;9.40;99.90;;;9.54;70.15;101506.94;5100667;28;20117;-84
2024/01/30 05:26:27;;;;;;;17.27;9.43;;;9.40;99.90;;;9.53;70.39;101508.78;5083813;28;20047;-85
2024/01/30 05:28:55;;;;;;;20.05;9.77;;;9.40;99.90;;;9.54;70.27;101509.59;5120004;28;20108;-85
2024/01/30 05:31:29;;;;;;;16.83;9.25;;;9.40;99.90;;;9.55;70.08;101512.06;5102635;28;20055;-84
2024/01/30 05:33:58;;;;;;;21.10;10.18;;;9.40;99.90;;;9.55;70.10;101503.25;5122137;27;20130;-84
2024/01/30 05:36:28;;;;;;;16.50;9.52;;;9.40;99.90;;;9.55;70.13;101500.59;5101363;28;20044;-84
2024/01/30 05:38:59;;;;;;;18.15;8.45;;;9.40;99.90;;;9.54;70.16;101509.59;5084458;28;20047;-84
2024/01/30 05:41:30;;;;;;;16.77;8.32;;;9.40;99.90;;;9.54;70.34;101506.94;5100041;28;20048;-84
2024/01/30 05:44:00;;;;;;;15.57;8.38;;;9.40;99.90;;;9.55;70.18;101505.91;5086609;28;20055;-79
2024/01/30 05:46:34;;;;;;;14.48;7.82;;;9.40;99.90;;;9.55;70.23;101508.59;5127875;27;20080;-79
2024/01/30 05:49:04;;;;;;;15.02;7.40;;;9.40;99.90;;;9.54;70.20;101506.94;5142124;27;20563;-79
2024/01/30 05:51:31;;;;;;;13.18;7.20;;;9.40;99.90;;;9.54;70.27;101507.75;5139722;27;20039;-79
2024/01/30 05:53:59;;;;;;;14.00;6.95;;;9.40;99.90;;;9.54;70.08;101507.75;5103553;28;20044;-79
2024/01/30 05:56:26;;;;;;;14.52;7.00;;;9.40;99.90;;;9.54;70.23;101506.94;5121005;28;20040;-80
2024/01/30 05:58:53;;;;;;;11.23;7.13;;;9.30;99.90;;;9.51;70.50;101493.97;5120981;28;20031;-79
2024/01/30 06:01:21;;;;;;;12.43;7.30;;;9.40;99.90;;;9.53;70.73;101494.63;5103528;28;20043;-79
2024/01/30 06:03:48;;;;;;;13.82;7.40;;;9.40;99.90;;;9.53;70.63;101497.28;5103435;28;20048;-79
2024/01/30 06:06:17;;;;;;;13.15;6.40;;;9.40;99.90;;;9.52;70.69;101499.13;5122016;28;20040;-79
2024/01/30 06:08:45;;;;;;;13.40;7.25;;;9.40;99.90;;;9.50;70.65;101493.13;5101750;28;20052;-79
2024/01/30 06:11:12;;;;;;;13.63;7.15;;;9.40;99.90;;;9.49;70.94;101496.81;5101597;28;20036;-79
2024/01/30 06:13:41;;;;;;;13.18;7.32;;;9.40;99.90;;;9.50;71.01;101492.31;5120828;28;20051;-80
2024/01/30 06:16:12;;;;;;;10.57;6.28;;;9.40;99.90;;;9.52;70.96;101493.81;5116863;27;20046;-79
2024/01/30 06:18:40;;;;;;;10.95;7.22;;;9.50;99.90;;;9.54;71.05;101496.28;5102461;28;20482;-79
2024/01/30 06:21:08;;;;;;;11.00;7.15;;;9.50;99.90;;;9.57;71.01;101493.28;5101644;28;20050;-79
2024/01/30 06:23:36;;;;;;;14.38;6.60;;;9.50;99.90;;;9.54;71.02;101502.44;5120281;28;20047;-79
2024/01/30 06:26:04;;;;;;;12.00;6.47;;;9.50;99.90;;;9.56;70.95;101499.56;5120004;28;20054;-79
2024/01/30 06:28:32;;;;;;;13.85;7.20;;;9.50;99.90;;;9.56;70.95;101496.91;5119907;28;20044;-79
2024/01/30 06:31:01;;;;;;;13.15;6.97;;;9.50;99.90;;;9.57;71.06;101493.28;5123905;27;20065;-79
2024/01/30 06:33:29;;;;;;;10.68;6.93;;;9.50;99.90;;;9.60;70.88;101498.22;5119242;28;20058;-79
2024/01/30 06:35:56;;;;;;;11.80;7.47;;;9.50;99.90;;;9.61;70.79;101488.38;5101447;28;20046;-79
2024/01/30 06:38:24;;;;;;;12.02;6.97;;;9.50;99.90;;;9.61;70.90;101497.19;5101655;28;20567;-79
2024/01/30 06:40:53;;;;;;;14.80;6.90;;;9.50;99.90;;;9.61;70.84;101491.06;5067722;28;20043;-79
2024/01/30 06:43:20;;;;;;;13.15;6.60;;;9.50;99.90;;;9.64;70.75;101490.72;5122812;27;20044;-79
2024/01/30 06:45:48;;;;;;;13.32;6.40;;;9.50;99.90;;;9.61;70.86;101488.38;5114323;28;20126;-79
2024/01/30 06:48:15;;;;;;;13.52;6.97;;;9.50;99.90;;;9.61;71.02;101494.53;5119735;28;20043;-79
2024/01/30 06:50:43;;;;;;;14.10;6.65;;;9.50;99.90;;;9.62;71.13;101490.91;5119774;28;20050;-79
2024/01/30 06:53:10;;;;;;;13.18;6.78;;;9.60;99.90;;;9.65;71.18;101493.19;5120320;28;20044;-79
2024/01/30 06:55:39;;;;;;;12.15;5.88;;;9.60;99.90;;;9.67;71.23;101493.03;5118904;28;20436;-79
2024/01/30 06:58:08;;;;;;;12.88;6.30;;;9.60;99.90;;;9.69;71.17;101489.16;5102824;28;20128;-79
2024/01/30 07:00:36;;;;;;;13.23;6.35;;;9.60;99.90;;;9.70;71.08;101497.97;5101306;28;20048;-79
2024/01/30 07:03:04;;;;;;;12.48;6.28;;;9.60;99.90;;;9.70;71.04;101489.97;5085129;28;20045;-79
2024/01/30 07:05:33;;;;;;;13.75;6.28;;;9.60;99.90;;;9.71;71.00;101492.47;5119952;27;20035;-85
2024/01/30 07:08:00;;;;;;;12.82;6.32;;;9.60;99.90;;;9.71;70.99;101499.63;5103410;28;20070;-85
2024/01/30 07:10:28;;;;;;;16.88;6.20;;;9.60;99.90;;;9.70;70.91;101501.47;5080526;28;20452;-88
2024/01/30 07:12:56;;;;;;;12.50;6.38;;;9.70;99.90;;;9.69;71.14;101507.81;5130618;27;20503;-88
2024/01/30 07:15:25;;;;;;;10.32;6.35;;;9.70;99.90;;;9.70;71.17;101501.47;5114713;28;20040;-88
2024/01/30 07:17:53;;;;;;;14.07;6.47;;;9.60;99.90;;;9.70;71.52;101505.97;5115090;28;20122;-89
2024/01/30 07:20:20;;;;;;;11.85;6.50;;;9.70;99.90;;;9.72;71.44;101510.13;5096960;27;20051;-88
2024/01/30 07:22:48;;;;;;;13.70;6.72;;;9.70;99.90;;;9.74;71.60;101509.94;5115136;28;20043;-88
2024/01/30 07:25:16;;;;;;;11.20;5.80;;;9.70;99.90;;;9.74;71.66;101516.06;5063251;28;20035;-88
2024/01/30 07:27:47;;;;;;;14.43;6.60;;;9.70;99.90;;;9.76;71.39;101526.53;5081854;27;20039;-90
2024/01/30 07:30:17;;;;;;;11.25;6.43;;;9.70;99.90;;;9.76;71.47;101524.72;5117277;27;20050;-90
2024/01/30 07:32:47;;;;;;;10.85;6.20;;;9.70;99.90;;;9.74;71.69;101521.41;5099361;28;20117;-91
2024/01/30 07:35:15;;;;;;;9.98;6.22;;;9.70;99.90;;;9.76;71.51;101521.22;5096898;28;20066;-86
2024/01/30 07:37:42;;;;;;;11.07;6.07;;;9.70;99.90;;;9.78;71.69;101520.03;5098655;28;20067;-82
2024/01/30 07:40:11;;;;;;;11.30;6.10;;;9.80;99.90;;;9.80;71.81;101520.69;5101570;28;20047;-82
2024/01/30 07:42:39;;;;;;;10.68;6.18;;;9.80;99.90;;;9.82;71.62;101525.03;5122772;28;20051;-82
2024/01/30 07:45:07;;;;;;;12.88;6.50;;;9.80;99.90;;;9.84;71.68;101520.31;5132199;27;20497;-81
2024/01/30 07:47:35;;;;;;;11.45;6.47;;;9.80;99.90;;;9.84;71.65;101515.00;5137465;27;20081;-82
2024/01/30 07:50:05;;;;;;;15.18;6.85;;;9.80;99.90;;;9.87;71.57;101527.97;5123534;27;20047;-82
2024/01/30 07:52:33;;;;;;;12.13;6.47;;;9.80;99.90;;;9.83;71.87;101518.69;5100186;28;20035;-81
2024/01/30 07:55:01;;;;;;;12.00;6.22;;;9.80;99.90;;;9.84;71.97;101529.16;5115084;28;20082;-81
2024/01/30 07:57:28;;;;;;;10.98;6.60;;;9.80;99.90;;;9.86;72.03;101534.28;5117950;27;20050;-81
2024/01/30 07:59:57;;;;;;;11.32;6.68;;;9.90;99.90;;;9.88;72.15;101541.09;5076834;28;20051;-81
2024/01/30 08:02:24;;;;;;;14.23;7.05;;;9.90;99.90;;;9.89;72.17;101549.94;5086085;28;20035;-81
2024/01/30 08:04:52;;;;;;;16.35;7.30;;;9.90;99.90;;;9.88;72.14;101540.28;5080193;28;20058;-81
2024/01/30 08:07:22;;;;;;;15.30;7.03;;;9.90;99.90;;;9.89;72.26;101548.09;5096459;28;20096;-81
2024/01/30 08:09:49;;;;;;;15.90;7.47;;;9.90;99.90;;;9.84;72.42;101547.78;5093766;28;20044;-81
2024/01/30 08:12:17;;;;;;;14.50;7.85;;;9.90;99.90;;;9.89;72.20;101544.59;5084336;28;20517;-81
2024/01/30 08:14:44;;;;;;;12.20;6.75;;;9.90;99.90;;;9.90;72.14;101546.25;5103872;27;20121;-81
2024/01/30 08:17:12;;;;;;;11.77;6.35;;;10.00;99.90;;;9.92;72.20;101546.91;5135565;27;20058;-81
2024/01/30 08:19:40;;;;;;;15.88;7.15;;;10.00;99.90;;;9.94;72.21;101552.88;5098539;28;20055;-81
2024/01/30 08:22:07;;;;;;;14.43;6.95;;;10.00;99.90;;;9.94;72.02;101548.38;5114629;28;20122;-81
2024/01/30 08:24:36;;;;;;;11.93;6.80;;;10.00;99.90;;;9.96;72.04;101549.03;5097205;28;20050;-81
2024/01/30 08:27:05;;;;;;;13.63;6.55;;;10.00;99.90;;;9.98;72.13;101555.00;5096287;28;20040;-81
2024/01/30 08:29:33;;;;;;;15.65;6.95;;;10.00;99.90;;;9.99;72.06;101559.31;5114978;28;20054;-81
2024/01/30 08:32:00;;;;;;;13.73;6.95;;;10.00;99.90;;;9.98;72.08;101554.19;5103718;28;20046;-81
2024/01/30 08:34:28;;;;;;;11.68;6.72;;;10.00;99.90;;;10.02;72.18;101558.16;5115096;28;20073;-81
2024/01/30 08:36:55;;;;;;;15.10;7.07;;;10.10;99.90;;;10.01;72.32;101554.66;5115371;28;20090;-81
2024/01/30 08:39:23;;;;;;;15.43;7.20;;;10.00;99.90;;;10.02;72.03;101555.47;5096331;28;20510;-81
2024/01/30 08:41:52;;;;;;;11.70;6.82;;;10.10;99.90;;;10.03;72.25;101563.28;5114752;28;20071;-81
2024/01/30 08:44:20;;;;;;;20.13;7.65;;;10.10;99.90;;;10.03;72.36;101557.13;5114346;28;20420;-81
2024/01/30 08:46:48;;;;;;;20.50;7.53;;;10.10;99.90;;;10.05;72.34;101565.75;5109019;28;20089;-82
2024/01/30 08:49:18;;;;;;;16.50;7.32;;;10.10;99.90;;;10.07;72.23;101563.75;5133000;28;20073;-81
2024/01/30 08:51:45;;;;;;;14.77;6.88;;;10.10;99.90;;;10.06;72.20;101557.59;5081571;28;20054;-81
2024/01/30 08:54:13;;;;;;;14.07;6.90;;;10.10;99.90;;;10.10;72.23;101568.72;5094641;28;20040;-81
2024/01/30 08:56:48;;;;;;;14.63;6.60;;;10.10;99.90;;;10.10;72.43;101567.88;5059591;28;20090;-81
2024/01/30 08:59:17;;;;;;;15.00;7.07;;;10.10;99.90;;;10.05;72.47;101571.94;5096226;28;20056;-81
2024/01/30 09:01:47;;;;;;;12.57;6.68;;;10.10;99.90;;;10.07;72.52;101574.41;5096717;28;20052;-81
2024/01/30 09:04:15;;;;;;;13.77;7.07;;;10.10;99.90;;;10.09;72.39;101571.56;5096935;28;20036;-81
2024/01/30 09:06:42;;;;;;;13.18;6.72;;;10.10;99.90;;;10.10;72.61;101576.72;5096297;28;20560;-81
2024/01/30 09:09:10;;;;;;;12.30;6.75;;;10.10;99.90;;;10.11;72.84;101569.56;5114649;28;20048;-81
2024/01/30 09:11:37;;;;;;;15.43;6.60;;;10.20;99.90;;;10.12;72.66;101576.53;5114863;28;20059;-81
2024/01/30 09:14:05;;;;;;;11.90;7.05;;;10.20;99.90;;;10.12;72.80;101587.22;5096125;28;20054;-81
2024/01/30 09:16:34;;;;;;;14.07;7.18;;;10.20;99.90;;;10.14;72.38;101582.50;5114712;28;20426;-81
2024/01/30 09:19:01;;;;;;;14.65;6.88;;;10.20;99.90;;;10.15;72.48;101587.69;5111978;28;20503;-81
2024/01/30 09:21:29;;;;;;;12.10;6.40;;;10.10;99.90;;;10.16;72.27;101588.50;5094312;28;20541;-81
2024/01/30 09:24:02;;;;;;;11.05;6.35;;;10.30;99.90;;;10.18;72.27;101603.28;5094093;28;20089;-81
2024/01/30 09:26:30;;;;;;;20.75;6.60;;;10.20;99.90;;;10.19;72.04;101604.94;5083386;28;20039;-81
2024/01/30 09:28:57;;;;;;;14.95;6.82;;;10.30;99.90;;;10.20;72.20;101605.78;5096601;28;20048;-81
2024/01/30 09:31:26;;;;;;;15.63;6.90;;;10.30;99.90;;;10.21;72.41;101604.78;5096538;28;20569;-81
2024/01/30 09:33:55;;;;;;;18.38;7.07;;;10.30;99.90;;;10.22;72.27;101599.25;5118791;28;20044;-81
2024/01/30 09:36:23;;;;;;;15.00;6.75;;;10.40;99.90;;;10.25;72.08;101598.94;5100598;28;20466;-81
2024/01/30 09:38:51;;;;;;;15.73;6.78;;;10.40;99.90;;;10.28;72.18;101600.41;5084396;28;20406;-81
2024/01/30 09:41:21;;;;;;;18.02;7.28;;;10.40;99.90;;;10.32;72.18;101604.38;5128177;27;20047;-81
2024/01/30 09:43:51;;;;;;;14.50;6.97;;;10.50;99.90;;;10.35;72.14;101597.88;5099434;28;20143;-81
2024/01/30 09:46:22;;;;;;;13.07;7.53;;;10.50;99.90;;;10.35;72.00;101597.88;5100273;28;20039;-81
2024/01/30 09:48:50;;;;;;;13.68;7.40;;;10.50;99.90;;;10.38;71.94;101600.16;5119300;28;20454;-81
2024/01/30 09:51:21;;;;;;;13.93;6.88;;;10.50;99.90;;;10.40;71.95;101595.47;5116877;27;20053;-84
2024/01/30 09:53:49;;;;;;;13.43;6.73;;;10.60;99.90;;;10.45;71.83;101590.44;5139988;27;20451;-81
2024/01/30 09:56:19;;;;;;;12.20;7.10;;;10.60;99.90;;;10.49;71.64;101594.34;5140723;27;20071;-81
2024/01/30 09:58:48;;;;;;;11.77;6.70;;;10.60;99.90;;;10.53;71.57;101590.31;5098618;28;20040;-81
2024/01/30 10:01:18;;;;;;;12.43;6.97;;;10.70;99.90;;;10.57;71.73;101594.28;5099276;28;20039;-81
2024/01/30 10:03:46;;;;;;;12.95;6.80;;;10.70;99.90;;;10.59;71.67;101594.94;5117581;28;20046;-81
2024/01/30 10:06:14;;;;;;;12.73;7.20;;;10.70;99.90;;;10.62;71.40;101594.56;5118505;28;20048;-81
2024/01/30 10:08:44;;;;;;;12.15;6.90;;;10.80;99.90;;;10.63;71.08;101590.03;5118325;28;20093;-81
2024/01/30 10:11:12;;;;;;;13.48;7.47;;;10.80;99.90;;;10.66;71.45;101590.50;5100623;28;20048;-81
2024/01/30 10:13:40;;;;;;;13.18;6.80;;;10.80;99.90;;;10.72;71.12;101583.59;5118386;28;20456;-81
2024/01/30 10:16:08;;;;;;;11.57;6.85;;;10.90;99.90;;;10.77;71.11;101584.69;5118098;28;20051;-81
2024/01/30 10:18:36;;;;;;;15.63;7.13;;;11.00;99.90;;;10.83;71.16;101585.81;5100137;28;20571;-81
2024/01/30 10:21:04;;;;;;;13.40;6.75;;;11.00;99.90;;;10.87;71.30;101578.25;5117996;28;20463;-81
2024/01/30 10:23:33;;;;;;;14.60;6.72;;;11.10;99.90;;;10.90;70.42;101585.91;5117852;28;20506;-81
2024/01/30 10:26:02;;;;;;;14.82;7.03;;;11.10;99.90;;;10.93;70.26;101570.34;5118010;28;20039;-81
2024/01/30 10:28:30;;;;;;;13.82;7.28;;;11.10;99.90;;;10.96;70.40;101579.81;5099909;28;20092;-81
2024/01/30 10:31:02;;;;;;;14.35;6.97;;;11.20;99.90;;;10.96;70.35;101580.63;5117629;28;20048;-81